SCSU weather

Santa Lucía Airport
Freire, Araucanía Region, Chile

Public forecast

Using degrees Celsius for public forecast. Weather courtesy of forecast.io.

Closest aviation weather report (METAR) to Santa Lucía Airport

Closest report is La Araucanía Airport, 13.3 nm (24.7 km) W. Retrieved 2020/02/21 09:00 UTC (50 minutes ago):

SCQP 210900Z 12008KT 080V160 CAVOK 22/01 Q1013

Closest aviation forecast (TAF) to Santa Lucía Airport

Closest forecast is La Araucanía Airport, 13.3 nm (24.7 km) W. Retrieved 2020/02/21 06:00 UTC (4 hours ago):

TAF SCQP 210403Z 2106/2206 16006KT CAVOK TN15/2111Z TX34/2120Z BECMG 2121/2123 09005KT BECMG 2202/2204 VRB02KT